Chiricana — 3EKU3 — position and weather

sailwx.info

Track history (hours):
 
Tides and Currents Weather Stations Pressure Air Temp Water Temp Dewpoint Dewpoint Depression Visibility Wind Speed Wind Dir Waves Ship Positions

Chiricana

Last reported at 2016-Apr-30 18:22 UTC. Time now 2016-Apr-30 18:51 UTC.
Position N 22°34' E 114°16'.

Length 300 m; draft 12.1 m.

Type: Ship (hazmat cat A). MMSI: 372829000.

Date/timePositionNaut miles runAvg speedWind from/ knotsBaromVisibWave heightAir tempDewpointWater temp
2016-Apr-30 18:22N 22°34' E 114°16'0 0.0
2016-Apr-30 17:22N 22°34' E 114°16'0 0.0
2016-Apr-30 16:28N 22°34' E 114°16'18 5.9
2016-Apr-30 13:20N 22°20' E 114°28'810.4
2016-Apr-30 12:33N 22°12' E 114°27'20 6.6
2016-Apr-30 09:33N 22°20' E 114°07'1 0.6
2016-Apr-30 08:32N 22°20' E 114°08'0 0.0
2016-Apr-30 06:32N 22°20' E 114°08'0 0.0
2016-Apr-30 04:32N 22°20' E 114°08'0 0.0
2016-Apr-30 02:32N 22°20' E 114°08'0 0.0
2016-Apr-30 01:32N 22°20' E 114°08'0 0.0
2016-Apr-30 00:29N 22°20' E 114°08'0 0.0
2016-Apr-29 23:32N 22°20' E 114°08'0 0.0
2016-Apr-29 22:29N 22°20' E 114°08'0 0.0
2016-Apr-29 21:32N 22°20' E 114°08'0 0.1
2016-Apr-29 20:29N 22°20' E 114°07'0 0.1
2016-Apr-29 19:32N 22°20' E 114°08'0 0.0
2016-Apr-29 18:32N 22°20' E 114°08'0 0.0
2016-Apr-29 17:32N 22°20' E 114°08'0 0.0
2016-Apr-29 16:26N 22°20' E 114°08'0 0.0
2016-Apr-29 15:32N 22°20' E 114°08'0 0.0
2016-Apr-29 14:08N 22°20' E 114°08'0 0.0
2016-Apr-29 13:32N 22°20' E 114°08'0 0.0
2016-Apr-29 12:17N 22°20' E 114°08'0 0.0
2016-Apr-29 11:20N 22°20' E 114°08'0 0.0
2016-Apr-29 09:18N 22°20' E 114°08'4 4.7
2016-Apr-29 08:33N 22°17' E 114°07'10 8.4
2016-Apr-29 07:21N 22°09' E 114°14'7 8.5
2016-Apr-29 06:33N 22°08' E 114°21'1210.5
2016-Apr-29 05:26N 21°56' E 114°21'  
2016-Apr-25 07:05N 01°16' E 104°13'814.8
2016-Apr-25 06:33N 01°15' E 104°05'1212.3
2016-Apr-25 05:33N 01°13' E 103°53'3 3.3
2016-Apr-25 04:33N 01°16' E 103°50'0 0.0
2016-Apr-25 03:33N 01°16' E 103°50'0 0.0
2016-Apr-25 02:33N 01°16' E 103°50'0 0.0
2016-Apr-25 01:15N 01°16' E 103°50'0 0.0
2016-Apr-25 00:30N 01°16' E 103°50'0 0.0
2016-Apr-24 23:33N 01°16' E 103°50'0 0.0
2016-Apr-24 22:30N 01°16' E 103°50'0 0.0
2016-Apr-24 21:30N 01°16' E 103°50'0 0.0
2016-Apr-24 20:33N 01°16' E 103°50'0 0.0
2016-Apr-24 19:30N 01°16' E 103°50'0 0.0
2016-Apr-24 18:33N 01°16' E 103°50'0 0.0
2016-Apr-24 17:30N 01°16' E 103°50'0 0.0
2016-Apr-24 16:23N 01°16' E 103°50'0 0.0
2016-Apr-24 15:30N 01°16' E 103°50'0 0.0
2016-Apr-24 14:33N 01°16' E 103°50'0 0.0
2016-Apr-24 13:29N 01°16' E 103°50'0 0.0
2016-Apr-24 12:14N 01°16' E 103°50'0 0.0
2016-Apr-24 11:29N 01°16' E 103°50'0 0.0
2016-Apr-24 10:29N 01°16' E 103°50'0 0.0
2016-Apr-24 09:29N 01°16' E 103°50'0 0.0
2016-Apr-24 08:29N 01°16' E 103°50'0 0.0
2016-Apr-24 07:32N 01°16' E 103°50'1 0.6
2016-Apr-24 06:33N 01°15' E 103°51'4 4.2
2016-Apr-24 05:33N 01°11' E 103°51'7 7.2
2016-Apr-24 04:33N 01°07' E 103°45'9 9.1
2016-Apr-24 03:33N 01°04' E 103°37'1110.6
2016-Apr-24 02:32N 01°10' E 103°28'4514.7
2016-Apr-23 23:27N 01°36' E 102°51'2018.7
2016-Apr-23 22:21N 01°46' E 102°33'1518.7
2016-Apr-23 21:33N 01°52' E 102°20'  
Track history (hours):
 
Tides and Currents Weather Stations Pressure Air Temp Water Temp Dewpoint Dewpoint Depression Visibility Wind Speed Wind Dir Waves Ship Positions

Chiricana

Last reported at 2016-Apr-30 18:22 UTC. Time now 2016-Apr-30 18:51 UTC.
Position N 22°34' E 114°16'.

Length 300 m; draft 12.1 m.

Type: Ship (hazmat cat A). MMSI: 372829000.

Date/timePositionNaut miles runAvg speedWind from/ knotsBaromVisibWave heightAir tempDewpointWater temp
2016-Apr-30 18:22N 22°34' E 114°16'0 0.0
2016-Apr-30 17:22N 22°34' E 114°16'0 0.0
2016-Apr-30 16:28N 22°34' E 114°16'18 5.9
2016-Apr-30 13:20N 22°20' E 114°28'810.4
2016-Apr-30 12:33N 22°12' E 114°27'20 6.6
2016-Apr-30 09:33N 22°20' E 114°07'1 0.6
2016-Apr-30 08:32N 22°20' E 114°08'0 0.0
2016-Apr-30 06:32N 22°20' E 114°08'0 0.0
2016-Apr-30 04:32N 22°20' E 114°08'0 0.0
2016-Apr-30 02:32N 22°20' E 114°08'0 0.0
2016-Apr-30 01:32N 22°20' E 114°08'0 0.0
2016-Apr-30 00:29N 22°20' E 114°08'0 0.0
2016-Apr-29 23:32N 22°20' E 114°08'0 0.0
2016-Apr-29 22:29N 22°20' E 114°08'0 0.0
2016-Apr-29 21:32N 22°20' E 114°08'0 0.1
2016-Apr-29 20:29N 22°20' E 114°07'0 0.1
2016-Apr-29 19:32N 22°20' E 114°08'0 0.0
2016-Apr-29 18:32N 22°20' E 114°08'0 0.0
2016-Apr-29 17:32N 22°20' E 114°08'0 0.0
2016-Apr-29 16:26N 22°20' E 114°08'0 0.0
2016-Apr-29 15:32N 22°20' E 114°08'0 0.0
2016-Apr-29 14:08N 22°20' E 114°08'0 0.0
2016-Apr-29 13:32N 22°20' E 114°08'0 0.0
2016-Apr-29 12:17N 22°20' E 114°08'0 0.0
2016-Apr-29 11:20N 22°20' E 114°08'0 0.0
2016-Apr-29 09:18N 22°20' E 114°08'4 4.7
2016-Apr-29 08:33N 22°17' E 114°07'10 8.4
2016-Apr-29 07:21N 22°09' E 114°14'7 8.5
2016-Apr-29 06:33N 22°08' E 114°21'1210.5
2016-Apr-29 05:26N 21°56' E 114°21'  
2016-Apr-25 07:05N 01°16' E 104°13'814.8
2016-Apr-25 06:33N 01°15' E 104°05'1212.3
2016-Apr-25 05:33N 01°13' E 103°53'3 3.3
2016-Apr-25 04:33N 01°16' E 103°50'0 0.0
2016-Apr-25 03:33N 01°16' E 103°50'0 0.0
2016-Apr-25 02:33N 01°16' E 103°50'0 0.0
2016-Apr-25 01:15N 01°16' E 103°50'0 0.0
2016-Apr-25 00:30N 01°16' E 103°50'0 0.0
2016-Apr-24 23:33N 01°16' E 103°50'0 0.0
2016-Apr-24 22:30N 01°16' E 103°50'0 0.0
2016-Apr-24 21:30N 01°16' E 103°50'0 0.0
2016-Apr-24 20:33N 01°16' E 103°50'0 0.0
2016-Apr-24 19:30N 01°16' E 103°50'0 0.0
2016-Apr-24 18:33N 01°16' E 103°50'0 0.0
2016-Apr-24 17:30N 01°16' E 103°50'0 0.0
2016-Apr-24 16:23N 01°16' E 103°50'0 0.0
2016-Apr-24 15:30N 01°16' E 103°50'0 0.0
2016-Apr-24 14:33N 01°16' E 103°50'0 0.0
2016-Apr-24 13:29N 01°16' E 103°50'0 0.0
2016-Apr-24 12:14N 01°16' E 103°50'0 0.0
2016-Apr-24 11:29N 01°16' E 103°50'0 0.0
2016-Apr-24 10:29N 01°16' E 103°50'0 0.0
2016-Apr-24 09:29N 01°16' E 103°50'0 0.0
2016-Apr-24 08:29N 01°16' E 103°50'0 0.0
2016-Apr-24 07:32N 01°16' E 103°50'1 0.6
2016-Apr-24 06:33N 01°15' E 103°51'4 4.2
2016-Apr-24 05:33N 01°11' E 103°51'7 7.2
2016-Apr-24 04:33N 01°07' E 103°45'9 9.1
2016-Apr-24 03:33N 01°04' E 103°37'1110.6
2016-Apr-24 02:32N 01°10' E 103°28'4514.7
2016-Apr-23 23:27N 01°36' E 102°51'2018.7
2016-Apr-23 22:21N 01°46' E 102°33'1518.7
2016-Apr-23 21:33N 01°52' E 102°20'  

Dump ship's entire track history